createdAt,value
2022-11-09T00:02:43.968Z,14.80
2022-11-09T00:05:56.338Z,14.80
2022-11-09T00:09:06.797Z,14.80
2022-11-09T00:12:10.807Z,14.80
2022-11-09T00:15:14.467Z,14.80
2022-11-09T00:18:20.352Z,14.70
2022-11-09T00:21:25.137Z,14.70
2022-11-09T00:24:28.894Z,14.70
2022-11-09T00:27:32.719Z,14.70
2022-11-09T00:30:36.477Z,14.70
2022-11-09T00:33:42.148Z,14.70
2022-11-09T00:36:45.919Z,14.70
2022-11-09T00:39:49.669Z,14.60
2022-11-09T00:42:53.723Z,14.60
2022-11-09T00:45:57.204Z,14.60
2022-11-09T00:49:03.295Z,14.60
2022-11-09T00:52:07.266Z,14.60
2022-11-09T00:55:10.952Z,14.60
2022-11-09T00:58:15.383Z,14.60
2022-11-09T01:01:19.133Z,14.60
2022-11-09T01:04:25.071Z,14.50
2022-11-09T01:07:30.058Z,14.50
2022-11-09T01:10:34.009Z,14.50
2022-11-09T01:13:38.172Z,14.50
2022-11-09T01:16:44.536Z,14.60
2022-11-09T01:19:50.312Z,14.50
2022-11-09T01:22:54.572Z,14.60
2022-11-09T01:26:02.484Z,14.60
2022-11-09T01:29:06.333Z,14.60
2022-11-09T01:32:10.578Z,14.60
2022-11-09T01:35:16.364Z,14.60
2022-11-09T01:38:20.132Z,14.60
2022-11-09T01:41:26.428Z,14.60
2022-11-09T01:44:31.129Z,14.60
2022-11-09T01:47:35.201Z,14.60
2022-11-09T01:50:46.124Z,14.60
2022-11-09T01:53:53.066Z,14.60
2022-11-09T01:57:01.231Z,14.60
2022-11-09T02:00:08.826Z,14.70
2022-11-09T02:03:24.769Z,14.70
2022-11-09T02:06:32.795Z,14.70
2022-11-09T02:09:42.510Z,14.70
2022-11-09T02:12:46.820Z,14.70
2022-11-09T02:15:51.666Z,14.70
2022-11-09T02:18:57.344Z,14.70
2022-11-09T02:22:04.331Z,14.70
2022-11-09T02:25:10.628Z,14.70
2022-11-09T02:28:16.719Z,14.70
2022-11-09T02:31:21.989Z,14.70
2022-11-09T02:34:26.807Z,14.80
2022-11-09T02:37:36.189Z,14.70
2022-11-09T02:40:43.033Z,14.70
2022-11-09T02:43:47.174Z,14.70
2022-11-09T02:46:51.039Z,14.70
2022-11-09T02:49:57.262Z,14.70
2022-11-09T02:53:03.034Z,14.70
2022-11-09T02:56:10.088Z,14.70
2022-11-09T02:59:14.082Z,14.70
2022-11-09T03:02:19.283Z,14.70
2022-11-09T03:05:23.111Z,14.70
2022-11-09T03:08:28.902Z,14.70
2022-11-09T03:11:33.157Z,14.70
2022-11-09T03:14:37.217Z,14.70
2022-11-09T03:17:41.374Z,14.80
2022-11-09T03:20:45.349Z,14.80
2022-11-09T03:23:55.465Z,14.70
2022-11-09T03:27:00.689Z,14.70
2022-11-09T03:30:05.385Z,14.70
2022-11-09T03:33:11.982Z,14.70
2022-11-09T03:36:16.609Z,14.70
2022-11-09T03:39:22.313Z,14.70
2022-11-09T03:42:26.092Z,14.70
2022-11-09T03:45:30.305Z,14.70
2022-11-09T03:48:34.085Z,14.70
2022-11-09T03:51:38.112Z,14.60
2022-11-09T03:54:44.018Z,14.60
2022-11-09T03:57:48.367Z,14.60
2022-11-09T04:00:52.301Z,14.60
2022-11-09T04:03:56.054Z,14.60
2022-11-09T04:06:59.757Z,14.60
2022-11-09T04:10:06.818Z,14.60
2022-11-09T04:13:10.547Z,14.50
2022-11-09T04:16:14.500Z,14.50
2022-11-09T04:19:18.201Z,14.50
2022-11-09T04:22:21.981Z,14.50
2022-11-09T04:25:29.267Z,14.40
2022-11-09T04:28:33.192Z,14.40
2022-11-09T04:31:36.904Z,14.40
2022-11-09T04:34:40.913Z,14.40
2022-11-09T04:37:44.610Z,14.40
2022-11-09T04:40:50.326Z,14.40
2022-11-09T04:43:54.031Z,14.40
2022-11-09T04:46:57.832Z,14.30
2022-11-09T04:50:01.581Z,14.30
2022-11-09T04:53:10.744Z,14.30
2022-11-09T04:56:16.818Z,14.30
2022-11-09T04:59:20.619Z,14.30
2022-11-09T05:02:24.398Z,14.30
2022-11-09T05:05:28.264Z,14.30
2022-11-09T05:08:31.965Z,14.30
2022-11-09T05:11:38.546Z,14.20
2022-11-09T05:14:42.294Z,14.20
2022-11-09T05:17:46.252Z,14.20
2022-11-09T05:20:49.969Z,14.20
2022-11-09T05:24:00.981Z,14.10
2022-11-09T05:27:06.834Z,14.10
2022-11-09T05:30:11.777Z,14.10
2022-11-09T05:33:16.627Z,14.10
2022-11-09T05:36:21.340Z,14.10
2022-11-09T05:39:25.347Z,14.10
2022-11-09T05:42:30.781Z,14.00
2022-11-09T05:45:43.354Z,14.00
2022-11-09T05:48:48.303Z,14.00
2022-11-09T05:51:52.004Z,14.00
2022-11-09T05:54:55.914Z,14.00
2022-11-09T05:58:01.809Z,13.90
2022-11-09T06:01:06.601Z,13.90
2022-11-09T06:04:10.525Z,13.90
2022-11-09T06:07:14.065Z,13.90
2022-11-09T06:10:18.252Z,13.80
2022-11-09T06:13:23.944Z,13.80
2022-11-09T06:16:27.851Z,13.80
2022-11-09T06:19:31.658Z,13.80
2022-11-09T06:22:35.370Z,13.80
2022-11-09T06:25:39.231Z,13.70
2022-11-09T06:28:44.973Z,13.70
2022-11-09T06:31:49.852Z,13.70
2022-11-09T06:34:53.829Z,13.70
2022-11-09T06:37:58.063Z,13.70
2022-11-09T06:41:02.528Z,13.60
2022-11-09T06:44:08.454Z,13.60
2022-11-09T06:47:12.273Z,13.60
2022-11-09T06:50:16.272Z,13.60
2022-11-09T06:53:20.313Z,13.60
2022-11-09T06:56:24.394Z,13.50
2022-11-09T06:59:30.208Z,13.50
2022-11-09T07:02:35.558Z,13.50
2022-11-09T07:05:40.463Z,13.50
2022-11-09T07:08:44.215Z,13.50
2022-11-09T07:11:50.292Z,13.40
2022-11-09T07:14:56.153Z,13.40
2022-11-09T07:18:00.676Z,13.40
2022-11-09T07:21:10.116Z,13.40
2022-11-09T07:24:17.893Z,13.40
2022-11-09T07:27:26.399Z,13.40
2022-11-09T07:30:33.501Z,13.40
2022-11-09T07:33:37.223Z,13.40
2022-11-09T07:36:40.911Z,13.30
2022-11-09T07:39:44.654Z,13.30
2022-11-09T07:42:48.534Z,13.30
2022-11-09T07:45:54.047Z,13.30
2022-11-09T07:48:57.807Z,13.30
2022-11-09T07:52:01.795Z,13.30
2022-11-09T07:55:06.190Z,13.30
2022-11-09T07:58:13.379Z,13.30
2022-11-09T08:01:19.021Z,13.30
2022-11-09T08:04:23.005Z,13.30
2022-11-09T08:07:26.488Z,13.30
2022-11-09T08:10:31.708Z,13.40
2022-11-09T08:13:35.643Z,13.40
2022-11-09T08:16:41.111Z,13.40
2022-11-09T08:19:44.819Z,13.40
2022-11-09T08:22:49.118Z,13.40
2022-11-09T08:25:53.096Z,13.40
2022-11-09T08:28:57.156Z,13.40
2022-11-09T08:32:03.223Z,13.50
2022-11-09T08:35:09.508Z,13.50
2022-11-09T08:38:13.213Z,13.50
2022-11-09T08:41:16.978Z,13.50
2022-11-09T08:44:21.890Z,13.60
2022-11-09T08:47:27.640Z,13.60
2022-11-09T08:50:32.551Z,13.60
2022-11-09T08:53:36.234Z,13.70
2022-11-09T08:56:39.925Z,13.70
2022-11-09T08:59:43.651Z,13.70
2022-11-09T09:02:49.508Z,13.70
2022-11-09T09:05:53.222Z,13.80
2022-11-09T09:08:56.868Z,13.80
2022-11-09T09:12:00.687Z,13.80
2022-11-09T09:15:04.782Z,13.80
2022-11-09T09:18:10.207Z,13.90
2022-11-09T09:21:13.879Z,13.90
2022-11-09T09:24:17.750Z,13.90
2022-11-09T09:27:21.427Z,14.00
2022-11-09T09:30:25.169Z,14.00
2022-11-09T09:33:30.773Z,14.10
2022-11-09T09:36:34.925Z,14.10
2022-11-09T09:39:38.642Z,14.20
2022-11-09T09:42:44.783Z,14.20
2022-11-09T09:45:54.387Z,14.20
2022-11-09T09:49:06.625Z,14.30
2022-11-09T09:52:19.664Z,14.40
2022-11-09T09:55:30.382Z,14.40
2022-11-09T09:58:36.336Z,14.50
2022-11-09T10:01:42.329Z,14.50
2022-11-09T10:04:48.101Z,14.60
2022-11-09T10:08:00.264Z,14.60
2022-11-09T10:11:17.941Z,14.70
2022-11-09T10:14:47.010Z,14.70
2022-11-09T10:18:01.416Z,14.80
2022-11-09T10:21:22.436Z,14.80
2022-11-09T10:24:48.690Z,14.90
2022-11-09T10:28:06.368Z,14.90
2022-11-09T10:31:17.538Z,15.00
2022-11-09T10:34:25.709Z,15.00
2022-11-09T10:37:37.115Z,15.10
2022-11-09T10:40:47.030Z,15.10
2022-11-09T10:44:17.477Z,15.10
2022-11-09T10:47:49.387Z,15.20
2022-11-09T10:51:33.982Z,15.20
2022-11-09T10:55:18.642Z,15.20
2022-11-09T10:58:46.794Z,15.30
2022-11-09T11:02:41.408Z,15.20
2022-11-09T11:06:05.565Z,15.20
2022-11-09T11:09:30.334Z,15.20
2022-11-09T11:13:22.859Z,15.30
2022-11-09T11:16:47.740Z,15.30
2022-11-09T11:20:26.966Z,15.30
2022-11-09T11:24:12.299Z,15.40
2022-11-09T11:27:40.693Z,15.40
2022-11-09T11:31:05.904Z,15.40
2022-11-09T11:34:58.700Z,15.50
2022-11-09T11:38:24.206Z,15.50
2022-11-09T11:42:17.248Z,15.50
2022-11-09T11:45:43.382Z,15.60
2022-11-09T11:49:36.674Z,15.60
2022-11-09T11:53:10.613Z,15.60
2022-11-09T11:56:37.556Z,15.60
2022-11-09T12:00:12.813Z,15.60
2022-11-09T12:03:44.132Z,15.60
2022-11-09T12:07:20.572Z,15.60
2022-11-09T12:10:55.010Z,15.60
2022-11-09T12:14:29.441Z,15.60
2022-11-09T12:18:02.869Z,15.60
2022-11-09T12:21:32.935Z,15.60
2022-11-09T12:25:03.429Z,15.60
2022-11-09T12:28:49.436Z,15.60
2022-11-09T12:32:21.115Z,15.60
2022-11-09T12:35:47.634Z,15.60
2022-11-09T12:39:17.934Z,15.60
2022-11-09T12:42:45.988Z,15.60
2022-11-09T12:46:12.596Z,15.60
2022-11-09T12:49:39.431Z,15.50
2022-11-09T12:53:05.551Z,15.50
2022-11-09T12:56:33.446Z,15.50
2022-11-09T12:59:56.793Z,15.50
2022-11-09T13:03:25.246Z,15.40
2022-11-09T13:07:19.870Z,15.40
2022-11-09T13:10:42.096Z,15.40
2022-11-09T13:14:34.475Z,15.30
2022-11-09T13:18:00.764Z,15.30
2022-11-09T13:21:39.059Z,15.30
2022-11-09T13:25:02.807Z,15.30
2022-11-09T13:28:46.506Z,15.30
2022-11-09T13:32:26.945Z,15.30
2022-11-09T13:36:20.522Z,15.30
2022-11-09T13:39:45.588Z,15.40
2022-11-09T13:43:20.887Z,15.40
2022-11-09T13:46:48.506Z,15.40
2022-11-09T13:50:19.234Z,15.40
2022-11-09T13:53:56.745Z,15.40
2022-11-09T13:57:22.050Z,15.40
2022-11-09T14:00:47.690Z,15.40
2022-11-09T14:04:22.191Z,15.40
2022-11-09T14:07:44.673Z,15.30
2022-11-09T14:11:31.296Z,15.30
2022-11-09T14:15:14.097Z,15.30
2022-11-09T14:18:47.734Z,15.30
2022-11-09T14:22:16.956Z,15.30
2022-11-09T14:25:39.521Z,15.30
2022-11-09T14:29:12.576Z,15.30
2022-11-09T14:32:38.128Z,15.30
2022-11-09T14:36:02.087Z,15.30
2022-11-09T14:39:28.973Z,15.30
2022-11-09T14:42:54.652Z,15.20
2022-11-09T14:46:21.995Z,15.20
2022-11-09T14:49:46.925Z,15.20
2022-11-09T14:53:09.290Z,15.20
2022-11-09T14:56:33.325Z,15.20
2022-11-09T14:59:57.130Z,15.20
2022-11-09T15:03:25.315Z,15.10
2022-11-09T15:06:52.610Z,15.10
2022-11-09T15:10:22.147Z,15.10
2022-11-09T15:13:44.651Z,15.10
2022-11-09T15:17:16.819Z,15.10
2022-11-09T15:21:13.414Z,15.00
2022-11-09T15:24:49.789Z,15.00
2022-11-09T15:28:25.627Z,15.00
2022-11-09T15:31:59.648Z,15.00
2022-11-09T15:35:22.247Z,14.90
2022-11-09T15:38:56.450Z,14.90
2022-11-09T15:42:21.166Z,14.90
2022-11-09T15:45:43.241Z,14.90
2022-11-09T15:49:17.675Z,14.80
2022-11-09T15:52:40.216Z,14.80
2022-11-09T15:56:02.540Z,14.80
2022-11-09T15:59:28.321Z,14.80
2022-11-09T16:02:50.522Z,14.80
2022-11-09T16:06:17.443Z,14.70
2022-11-09T16:09:40.988Z,14.70
2022-11-09T16:13:03.483Z,14.70
2022-11-09T16:16:28.057Z,14.70
2022-11-09T16:19:53.274Z,14.60
2022-11-09T16:23:15.477Z,14.60
2022-11-09T16:26:38.088Z,14.60
2022-11-09T16:30:01.299Z,14.60
2022-11-09T16:33:25.762Z,14.60
2022-11-09T16:36:52.298Z,14.60
2022-11-09T16:40:18.546Z,14.50
2022-11-09T16:43:42.258Z,14.50
2022-11-09T16:47:07.010Z,14.40
2022-11-09T16:50:31.029Z,14.40
2022-11-09T16:53:53.287Z,14.40
2022-11-09T16:57:15.709Z,14.40
2022-11-09T17:00:56.272Z,14.40
2022-11-09T17:04:20.262Z,14.40
2022-11-09T17:07:44.517Z,14.30
2022-11-09T17:11:09.945Z,14.30
2022-11-09T17:14:32.271Z,14.30
2022-11-09T17:17:54.630Z,14.30
2022-11-09T17:21:17.466Z,14.30
2022-11-09T17:24:41.853Z,14.20
2022-11-09T17:28:04.298Z,14.20
2022-11-09T17:31:27.267Z,14.20
2022-11-09T17:34:49.393Z,14.20
2022-11-09T17:38:11.788Z,14.20
2022-11-09T17:41:42.270Z,14.10
2022-11-09T17:45:05.667Z,14.10
2022-11-09T17:48:27.895Z,14.10
2022-11-09T17:51:50.258Z,14.10
2022-11-09T17:55:12.517Z,14.00
2022-11-09T17:58:39.376Z,14.00
2022-11-09T18:02:01.877Z,14.00
2022-11-09T18:05:23.962Z,13.90
2022-11-09T18:08:54.184Z,13.90
2022-11-09T18:12:26.493Z,13.90
2022-11-09T18:15:51.104Z,13.90
2022-11-09T18:19:13.482Z,13.90
2022-11-09T18:22:35.729Z,13.80
2022-11-09T18:25:58.735Z,13.80
2022-11-09T18:29:20.934Z,13.80
2022-11-09T18:32:45.348Z,13.80
2022-11-09T18:36:10.809Z,13.70
2022-11-09T18:39:32.993Z,13.70
2022-11-09T18:42:55.287Z,13.70
2022-11-09T18:46:19.449Z,13.70
2022-11-09T18:49:43.815Z,13.70
2022-11-09T18:53:06.069Z,13.60
2022-11-09T18:56:28.854Z,13.60
2022-11-09T18:59:51.149Z,13.60
2022-11-09T19:03:16.498Z,13.60
2022-11-09T19:06:40.726Z,13.60
2022-11-09T19:10:03.410Z,13.50
2022-11-09T19:13:25.805Z,13.50
2022-11-09T19:16:48.147Z,13.50
2022-11-09T19:20:12.196Z,13.50
2022-11-09T19:23:36.613Z,13.50
2022-11-09T19:26:58.891Z,13.50
2022-11-09T19:30:24.832Z,13.50
2022-11-09T19:33:47.285Z,13.50
2022-11-09T19:37:10.346Z,13.50
2022-11-09T19:40:39.549Z,13.50
2022-11-09T19:44:02.853Z,13.40
2022-11-09T19:47:25.307Z,13.40
2022-11-09T19:50:51.861Z,13.40
2022-11-09T19:54:15.554Z,13.40
2022-11-09T19:57:39.712Z,13.40
2022-11-09T20:01:05.926Z,13.40
2022-11-09T20:04:28.749Z,13.30
2022-11-09T20:07:50.704Z,13.30
2022-11-09T20:11:36.140Z,13.30
2022-11-09T20:15:00.463Z,13.30
2022-11-09T20:18:23.166Z,13.30
2022-11-09T20:21:46.152Z,13.30
2022-11-09T20:25:09.916Z,13.20
2022-11-09T20:28:32.309Z,13.20
2022-11-09T20:31:56.832Z,13.20
2022-11-09T20:35:19.403Z,13.20
2022-11-09T20:38:41.917Z,13.20
2022-11-09T20:42:03.969Z,13.20
2022-11-09T20:45:26.252Z,13.20
2022-11-09T20:48:54.544Z,13.10
2022-11-09T20:52:17.598Z,13.10
2022-11-09T20:55:40.411Z,13.10
2022-11-09T20:59:02.642Z,13.00
2022-11-09T21:02:25.061Z,13.00
2022-11-09T21:05:51.709Z,13.00
2022-11-09T21:09:16.459Z,12.90
2022-11-09T21:12:38.694Z,12.90
2022-11-09T21:16:06.957Z,12.90
2022-11-09T21:19:29.083Z,12.90
2022-11-09T21:23:08.042Z,12.80
2022-11-09T21:26:43.693Z,12.80
2022-11-09T21:30:06.597Z,12.80
2022-11-09T21:33:29.153Z,12.70
2022-11-09T21:36:51.410Z,12.70
2022-11-09T21:40:15.710Z,12.70
2022-11-09T21:43:37.983Z,12.60
2022-11-09T21:47:00.806Z,12.60
2022-11-09T21:50:22.969Z,12.60
2022-11-09T21:53:45.566Z,12.60
2022-11-09T21:57:09.884Z,12.60
2022-11-09T22:00:32.231Z,12.50
2022-11-09T22:03:54.819Z,12.50
2022-11-09T22:07:16.946Z,12.50
2022-11-09T22:10:39.335Z,12.50
2022-11-09T22:14:16.916Z,12.50
2022-11-09T22:17:39.258Z,12.40
2022-11-09T22:20:59.604Z,12.40
2022-11-09T22:24:21.795Z,12.40
2022-11-09T22:27:44.307Z,12.40
2022-11-09T22:31:09.771Z,12.30
2022-11-09T22:34:32.022Z,12.30
2022-11-09T22:37:54.316Z,12.30
2022-11-09T22:41:17.000Z,12.30
2022-11-09T22:44:39.533Z,12.20
2022-11-09T22:48:03.814Z,12.20
2022-11-09T22:51:26.097Z,12.20
2022-11-09T22:54:48.476Z,12.20
2022-11-09T22:58:11.005Z,12.10
2022-11-09T23:01:33.056Z,12.10
2022-11-09T23:04:57.528Z,12.10
2022-11-09T23:08:19.632Z,12.10
2022-11-09T23:11:42.539Z,12.00
2022-11-09T23:15:12.511Z,12.00
2022-11-09T23:18:48.652Z,12.00
2022-11-09T23:22:12.878Z,12.00
2022-11-09T23:25:48.887Z,12.00
2022-11-09T23:29:11.177Z,11.90
2022-11-09T23:32:33.447Z,11.90
2022-11-09T23:35:55.646Z,11.90
2022-11-09T23:39:20.206Z,11.90
2022-11-09T23:42:42.769Z,11.80
2022-11-09T23:46:07.025Z,11.80
2022-11-09T23:49:29.388Z,11.70
2022-11-09T23:52:51.874Z,11.70
2022-11-09T23:56:16.166Z,11.70
2022-11-09T23:59:38.446Z,11.70
